sensor_id;sensor_type;location;lat;lon;timestamp;temperature;humidity
23560;DHT22;11958;50.836;4.438;2024-03-23T00:55:33;8.50;96.10
23560;DHT22;11958;50.836;4.438;2024-03-23T00:58:13;8.60;95.20
23560;DHT22;11958;50.836;4.438;2024-03-23T01:03:17;8.70;93.00
23560;DHT22;11958;50.836;4.438;2024-03-23T01:05:46;8.30;93.60
23560;DHT22;11958;50.836;4.438;2024-03-23T01:08:12;8.30;94.20
23560;DHT22;11958;50.836;4.438;2024-03-23T01:14:09;8.10;96.60
23560;DHT22;11958;50.836;4.438;2024-03-23T01:16:50;8.10;96.70
23560;DHT22;11958;50.836;4.438;2024-03-23T01:19:19;8.40;96.90
23560;DHT22;11958;50.836;4.438;2024-03-23T01:21:47;8.40;96.50
23560;DHT22;11958;50.836;4.438;2024-03-23T01:24:43;8.40;95.20
23560;DHT22;11958;50.836;4.438;2024-03-23T01:29:44;8.90;93.00
23560;DHT22;11958;50.836;4.438;2024-03-23T01:32:10;8.50;93.20
23560;DHT22;11958;50.836;4.438;2024-03-23T01:34:54;8.40;93.90
23560;DHT22;11958;50.836;4.438;2024-03-23T01:37:35;8.10;94.60
23560;DHT22;11958;50.836;4.438;2024-03-23T01:40:11;7.80;96.50
23560;DHT22;11958;50.836;4.438;2024-03-23T01:42:39;8.10;96.40
23560;DHT22;11958;50.836;4.438;2024-03-23T01:45:11;8.00;96.40
23560;DHT22;11958;50.836;4.438;2024-03-23T01:47:53;7.80;97.60
23560;DHT22;11958;50.836;4.438;2024-03-23T01:50:31;8.10;98.10
23560;DHT22;11958;50.836;4.438;2024-03-23T01:53:14;8.10;97.00
23560;DHT22;11958;50.836;4.438;2024-03-23T01:58:37;7.80;98.60
23560;DHT22;11958;50.836;4.438;2024-03-23T02:01:07;7.80;98.90
23560;DHT22;11958;50.836;4.438;2024-03-23T02:03:39;8.10;98.80
23560;DHT22;11958;50.836;4.438;2024-03-23T02:06:26;8.20;97.50
23560;DHT22;11958;50.836;4.438;2024-03-23T02:08:52;8.10;97.50
23560;DHT22;11958;50.836;4.438;2024-03-23T02:11:27;8.20;97.20
23560;DHT22;11958;50.836;4.438;2024-03-23T02:14:05;8.30;97.30
23560;DHT22;11958;50.836;4.438;2024-03-23T02:16:37;8.70;95.30
23560;DHT22;11958;50.836;4.438;2024-03-23T02:19:09;8.50;96.00
23560;DHT22;11958;50.836;4.438;2024-03-23T02:21:35;8.30;96.00
23560;DHT22;11958;50.836;4.438;2024-03-23T02:24:16;8.10;97.10
23560;DHT22;11958;50.836;4.438;2024-03-23T02:26:54;8.20;96.50
23560;DHT22;11958;50.836;4.438;2024-03-23T02:29:38;8.40;96.50
23560;DHT22;11958;50.836;4.438;2024-03-23T02:32:09;8.10;96.50
23560;DHT22;11958;50.836;4.438;2024-03-23T02:34:47;8.00;97.60
23560;DHT22;11958;50.836;4.438;2024-03-23T02:37:13;7.90;98.10
23560;DHT22;11958;50.836;4.438;2024-03-23T02:39:48;8.00;98.40
23560;DHT22;11958;50.836;4.438;2024-03-23T02:42:34;7.90;98.80
23560;DHT22;11958;50.836;4.438;2024-03-23T02:45:08;7.90;98.80
23560;DHT22;11958;50.836;4.438;2024-03-23T02:47:34;7.90;98.60
23560;DHT22;11958;50.836;4.438;2024-03-23T02:50:09;7.90;98.50
23560;DHT22;11958;50.836;4.438;2024-03-23T02:52:47;7.80;98.70
23560;DHT22;11958;50.836;4.438;2024-03-23T02:55:19;7.90;98.90
23560;DHT22;11958;50.836;4.438;2024-03-23T02:57:44;8.00;98.90
23560;DHT22;11958;50.836;4.438;2024-03-23T03:00:10;8.10;98.50
23560;DHT22;11958;50.836;4.438;2024-03-23T03:07:50;7.90;97.80
23560;DHT22;11958;50.836;4.438;2024-03-23T03:10:18;8.00;98.00
23560;DHT22;11958;50.836;4.438;2024-03-23T03:15:49;8.00;98.60
23560;DHT22;11958;50.836;4.438;2024-03-23T03:18:15;8.10;97.80
23560;DHT22;11958;50.836;4.438;2024-03-23T03:20:58;8.10;97.70
23560;DHT22;11958;50.836;4.438;2024-03-23T03:23:42;8.20;97.00
23560;DHT22;11958;50.836;4.438;2024-03-23T03:26:25;8.20;96.60
23560;DHT22;11958;50.836;4.438;2024-03-23T03:34:11;8.10;96.70
23560;DHT22;11958;50.836;4.438;2024-03-23T03:36:45;7.90;96.80
23560;DHT22;11958;50.836;4.438;2024-03-23T03:39:11;7.90;97.50
23560;DHT22;11958;50.836;4.438;2024-03-23T03:41:48;7.70;97.60
23560;DHT22;11958;50.836;4.438;2024-03-23T03:44:17;7.80;98.10
23560;DHT22;11958;50.836;4.438;2024-03-23T03:46:43;7.60;98.20
23560;DHT22;11958;50.836;4.438;2024-03-23T03:49:31;7.60;98.00
23560;DHT22;11958;50.836;4.438;2024-03-23T03:51:57;7.70;98.00
23560;DHT22;11958;50.836;4.438;2024-03-23T03:54:50;7.70;97.90
23560;DHT22;11958;50.836;4.438;2024-03-23T03:57:22;7.40;97.90
23560;DHT22;11958;50.836;4.438;2024-03-23T03:59:48;7.30;98.50
23560;DHT22;11958;50.836;4.438;2024-03-23T04:02:14;7.40;98.30
23560;DHT22;11958;50.836;4.438;2024-03-23T04:05:06;7.30;98.70
23560;DHT22;11958;50.836;4.438;2024-03-23T04:07:52;7.20;99.00
23560;DHT22;11958;50.836;4.438;2024-03-23T04:10:18;7.40;99.00
23560;DHT22;11958;50.836;4.438;2024-03-23T04:12:44;7.50;99.10
23560;DHT22;11958;50.836;4.438;2024-03-23T04:15:10;7.40;99.00
23560;DHT22;11958;50.836;4.438;2024-03-23T04:17:42;7.50;99.30
23560;DHT22;11958;50.836;4.438;2024-03-23T04:20:23;7.40;98.70
23560;DHT22;11958;50.836;4.438;2024-03-23T04:23:04;7.50;98.30
23560;DHT22;11958;50.836;4.438;2024-03-23T04:25:30;7.60;98.20
23560;DHT22;11958;50.836;4.438;2024-03-23T04:28:21;7.40;98.00
23560;DHT22;11958;50.836;4.438;2024-03-23T04:30:46;7.30;97.90
23560;DHT22;11958;50.836;4.438;2024-03-23T04:33:22;7.40;98.50
23560;DHT22;11958;50.836;4.438;2024-03-23T04:35:49;7.30;97.60
23560;DHT22;11958;50.836;4.438;2024-03-23T04:38:17;7.40;98.10
23560;DHT22;11958;50.836;4.438;2024-03-23T04:40:43;7.40;98.10
23560;DHT22;11958;50.836;4.438;2024-03-23T04:43:08;7.40;96.90
23560;DHT22;11958;50.836;4.438;2024-03-23T04:45:34;7.50;96.30
23560;DHT22;11958;50.836;4.438;2024-03-23T04:48:00;7.40;95.80
23560;DHT22;11958;50.836;4.438;2024-03-23T04:50:25;7.50;95.60
23560;DHT22;11958;50.836;4.438;2024-03-23T04:53:00;7.50;95.40
23560;DHT22;11958;50.836;4.438;2024-03-23T04:55:26;7.40;95.50
23560;DHT22;11958;50.836;4.438;2024-03-23T04:57:51;7.30;94.20
23560;DHT22;11958;50.836;4.438;2024-03-23T05:00:23;7.40;93.70
23560;DHT22;11958;50.836;4.438;2024-03-23T05:02:58;7.40;93.90
23560;DHT22;11958;50.836;4.438;2024-03-23T05:05:23;7.30;93.40
23560;DHT22;11958;50.836;4.438;2024-03-23T05:07:54;7.10;93.80
23560;DHT22;11958;50.836;4.438;2024-03-23T05:10:19;6.90;94.20
23560;DHT22;11958;50.836;4.438;2024-03-23T05:12:54;6.90;94.80
23560;DHT22;11958;50.836;4.438;2024-03-23T05:15:25;6.90;94.60
23560;DHT22;11958;50.836;4.438;2024-03-23T05:17:51;7.00;94.50
23560;DHT22;11958;50.836;4.438;2024-03-23T05:20:17;7.00;94.60
23560;DHT22;11958;50.836;4.438;2024-03-23T05:22:43;7.00;94.60
23560;DHT22;11958;50.836;4.438;2024-03-23T05:25:09;6.90;94.30
23560;DHT22;11958;50.836;4.438;2024-03-23T05:27:35;6.90;94.70
23560;DHT22;11958;50.836;4.438;2024-03-23T05:30:01;6.90;95.00
23560;DHT22;11958;50.836;4.438;2024-03-23T05:32:27;7.00;94.40
23560;DHT22;11958;50.836;4.438;2024-03-23T05:34:54;7.00;94.20
23560;DHT22;11958;50.836;4.438;2024-03-23T05:37:23;7.10;93.50
23560;DHT22;11958;50.836;4.438;2024-03-23T05:39:49;6.90;93.70
23560;DHT22;11958;50.836;4.438;2024-03-23T05:42:22;6.90;93.50
23560;DHT22;11958;50.836;4.438;2024-03-23T05:45:05;7.00;93.50
23560;DHT22;11958;50.836;4.438;2024-03-23T05:47:35;6.70;93.50
23560;DHT22;11958;50.836;4.438;2024-03-23T05:50:00;7.00;94.20
23560;DHT22;11958;50.836;4.438;2024-03-23T05:52:27;7.00;93.70
23560;DHT22;11958;50.836;4.438;2024-03-23T05:54:53;6.80;93.50
23560;DHT22;11958;50.836;4.438;2024-03-23T05:57:19;6.90;93.70
23560;DHT22;11958;50.836;4.438;2024-03-23T05:59:44;6.80;93.70
23560;DHT22;11958;50.836;4.438;2024-03-23T06:02:10;7.00;93.60
23560;DHT22;11958;50.836;4.438;2024-03-23T06:04:36;6.90;92.90
23560;DHT22;11958;50.836;4.438;2024-03-23T06:07:02;6.90;92.40
23560;DHT22;11958;50.836;4.438;2024-03-23T06:09:28;6.80;92.80
23560;DHT22;11958;50.836;4.438;2024-03-23T06:11:56;6.90;92.60
23560;DHT22;11958;50.836;4.438;2024-03-23T06:14:22;7.00;92.80
23560;DHT22;11958;50.836;4.438;2024-03-23T06:16:48;7.00;91.80
23560;DHT22;11958;50.836;4.438;2024-03-23T06:19:14;7.00;92.10
23560;DHT22;11958;50.836;4.438;2024-03-23T06:21:43;7.20;90.90
23560;DHT22;11958;50.836;4.438;2024-03-23T06:24:16;7.00;91.90
23560;DHT22;11958;50.836;4.438;2024-03-23T06:26:44;7.20;92.40
23560;DHT22;11958;50.836;4.438;2024-03-23T06:29:09;7.20;92.60
23560;DHT22;11958;50.836;4.438;2024-03-23T06:31:38;7.10;91.40
23560;DHT22;11958;50.836;4.438;2024-03-23T06:34:04;7.20;91.10
23560;DHT22;11958;50.836;4.438;2024-03-23T06:36:42;7.20;91.20
23560;DHT22;11958;50.836;4.438;2024-03-23T06:39:09;7.10;90.90
23560;DHT22;11958;50.836;4.438;2024-03-23T06:41:37;7.20;90.40
23560;DHT22;11958;50.836;4.438;2024-03-23T06:44:03;7.30;89.50
23560;DHT22;11958;50.836;4.438;2024-03-23T06:46:29;7.20;90.10
23560;DHT22;11958;50.836;4.438;2024-03-23T06:48:55;7.40;89.20
23560;DHT22;11958;50.836;4.438;2024-03-23T06:51:21;7.30;88.20
23560;DHT22;11958;50.836;4.438;2024-03-23T06:53:47;7.20;90.20
23560;DHT22;11958;50.836;4.438;2024-03-23T06:56:30;7.30;89.40
23560;DHT22;11958;50.836;4.438;2024-03-23T06:58:57;7.30;90.60
23560;DHT22;11958;50.836;4.438;2024-03-23T07:01:23;7.60;90.50
23560;DHT22;11958;50.836;4.438;2024-03-23T07:04:01;7.30;89.70
23560;DHT22;11958;50.836;4.438;2024-03-23T07:06:27;7.70;90.40
23560;DHT22;11958;50.836;4.438;2024-03-23T07:09:03;7.80;89.70
23560;DHT22;11958;50.836;4.438;2024-03-23T07:11:29;7.70;89.20
23560;DHT22;11958;50.836;4.438;2024-03-23T07:13:57;7.40;91.20
23560;DHT22;11958;50.836;4.438;2024-03-23T07:16:27;7.10;93.50
23560;DHT22;11958;50.836;4.438;2024-03-23T07:18:52;7.00;93.50
23560;DHT22;11958;50.836;4.438;2024-03-23T07:21:18;6.90;93.40
23560;DHT22;11958;50.836;4.438;2024-03-23T07:23:44;6.60;94.20
23560;DHT22;11958;50.836;4.438;2024-03-23T07:26:12;6.60;94.30
23560;DHT22;11958;50.836;4.438;2024-03-23T07:28:38;6.30;93.50
23560;DHT22;11958;50.836;4.438;2024-03-23T07:31:10;6.20;93.80
23560;DHT22;11958;50.836;4.438;2024-03-23T07:33:44;6.20;94.70
23560;DHT22;11958;50.836;4.438;2024-03-23T07:36:10;6.30;94.50
23560;DHT22;11958;50.836;4.438;2024-03-23T07:38:36;6.40;95.00
23560;DHT22;11958;50.836;4.438;2024-03-23T07:41:09;6.50;94.20
23560;DHT22;11958;50.836;4.438;2024-03-23T07:43:36;6.40;94.90
23560;DHT22;11958;50.836;4.438;2024-03-23T07:46:02;6.60;94.30
23560;DHT22;11958;50.836;4.438;2024-03-23T07:48:29;6.70;95.70
23560;DHT22;11958;50.836;4.438;2024-03-23T07:51:06;6.60;93.20
23560;DHT22;11958;50.836;4.438;2024-03-23T07:53:32;6.70;93.90
23560;DHT22;11958;50.836;4.438;2024-03-23T07:56:08;7.00;94.40
23560;DHT22;11958;50.836;4.438;2024-03-23T07:58:35;7.00;93.10
23560;DHT22;11958;50.836;4.438;2024-03-23T08:01:08;7.10;92.40
23560;DHT22;11958;50.836;4.438;2024-03-23T08:03:38;7.20;91.90
23560;DHT22;11958;50.836;4.438;2024-03-23T08:06:12;7.10;91.40
23560;DHT22;11958;50.836;4.438;2024-03-23T08:08:44;7.00;91.40
23560;DHT22;11958;50.836;4.438;2024-03-23T08:11:15;7.10;91.30
23560;DHT22;11958;50.836;4.438;2024-03-23T08:13:42;7.30;92.30
23560;DHT22;11958;50.836;4.438;2024-03-23T08:16:08;7.50;91.20
23560;DHT22;11958;50.836;4.438;2024-03-23T08:18:37;7.80;90.60
23560;DHT22;11958;50.836;4.438;2024-03-23T08:21:05;7.60;88.80
23560;DHT22;11958;50.836;4.438;2024-03-23T08:23:32;7.80;90.60
23560;DHT22;11958;50.836;4.438;2024-03-23T08:26:15;7.50;90.20
23560;DHT22;11958;50.836;4.438;2024-03-23T08:28:43;7.40;90.20
23560;DHT22;11958;50.836;4.438;2024-03-23T08:31:12;7.50;89.00
23560;DHT22;11958;50.836;4.438;2024-03-23T08:33:38;7.70;89.00
23560;DHT22;11958;50.836;4.438;2024-03-23T08:36:06;7.80;87.90
23560;DHT22;11958;50.836;4.438;2024-03-23T08:38:36;7.80;87.60
23560;DHT22;11958;50.836;4.438;2024-03-23T08:41:06;8.00;88.30
23560;DHT22;11958;50.836;4.438;2024-03-23T08:43:35;8.10;88.50
23560;DHT22;11958;50.836;4.438;2024-03-23T08:46:08;8.00;85.70
23560;DHT22;11958;50.836;4.438;2024-03-23T08:48:38;7.90;87.20
23560;DHT22;11958;50.836;4.438;2024-03-23T08:51:05;8.10;87.00
23560;DHT22;11958;50.836;4.438;2024-03-23T08:53:32;8.30;86.60
23560;DHT22;11958;50.836;4.438;2024-03-23T08:55:59;8.10;84.10
23560;DHT22;11958;50.836;4.438;2024-03-23T08:58:27;8.10;87.00
23560;DHT22;11958;50.836;4.438;2024-03-23T09:00:53;8.30;85.50
23560;DHT22;11958;50.836;4.438;2024-03-23T09:03:24;8.20;85.00
23560;DHT22;11958;50.836;4.438;2024-03-23T09:05:51;8.30;84.50
23560;DHT22;11958;50.836;4.438;2024-03-23T09:08:17;8.20;81.60
23560;DHT22;11958;50.836;4.438;2024-03-23T09:10:43;8.10;82.00
23560;DHT22;11958;50.836;4.438;2024-03-23T09:13:09;8.20;83.20
23560;DHT22;11958;50.836;4.438;2024-03-23T09:15:46;8.30;82.50
23560;DHT22;11958;50.836;4.438;2024-03-23T09:18:12;8.10;79.70
23560;DHT22;11958;50.836;4.438;2024-03-23T09:20:38;8.30;81.60
23560;DHT22;11958;50.836;4.438;2024-03-23T09:23:12;8.50;82.60
23560;DHT22;11958;50.836;4.438;2024-03-23T09:25:41;8.60;79.90
23560;DHT22;11958;50.836;4.438;2024-03-23T09:28:07;8.60;81.20
23560;DHT22;11958;50.836;4.438;2024-03-23T09:30:36;8.70;80.00
23560;DHT22;11958;50.836;4.438;2024-03-23T09:33:11;8.80;79.90
23560;DHT22;11958;50.836;4.438;2024-03-23T09:35:41;9.10;80.60
23560;DHT22;11958;50.836;4.438;2024-03-23T09:38:08;9.30;78.90
23560;DHT22;11958;50.836;4.438;2024-03-23T09:40:39;9.00;76.40
23560;DHT22;11958;50.836;4.438;2024-03-23T09:43:06;9.00;78.40
23560;DHT22;11958;50.836;4.438;2024-03-23T09:45:39;9.10;76.70
23560;DHT22;11958;50.836;4.438;2024-03-23T09:48:06;9.10;75.90
23560;DHT22;11958;50.836;4.438;2024-03-23T09:50:38;9.10;76.20
23560;DHT22;11958;50.836;4.438;2024-03-23T09:53:22;9.10;76.40
23560;DHT22;11958;50.836;4.438;2024-03-23T09:55:57;9.20;76.10
23560;DHT22;11958;50.836;4.438;2024-03-23T09:58:23;9.10;72.80
23560;DHT22;11958;50.836;4.438;2024-03-23T10:00:49;9.00;74.10
23560;DHT22;11958;50.836;4.438;2024-03-23T10:03:28;9.30;74.90
23560;DHT22;11958;50.836;4.438;2024-03-23T10:06:04;9.50;72.70
23560;DHT22;11958;50.836;4.438;2024-03-23T10:08:30;9.50;73.40
23560;DHT22;11958;50.836;4.438;2024-03-23T10:10:56;9.40;72.40
23560;DHT22;11958;50.836;4.438;2024-03-23T10:13:26;9.60;71.40
23560;DHT22;11958;50.836;4.438;2024-03-23T10:16:02;9.90;67.20
23560;DHT22;11958;50.836;4.438;2024-03-23T10:18:37;9.90;66.00
23560;DHT22;11958;50.836;4.438;2024-03-23T10:21:08;9.90;72.80
23560;DHT22;11958;50.836;4.438;2024-03-23T10:23:43;9.50;64.90
23560;DHT22;11958;50.836;4.438;2024-03-23T10:26:23;9.30;68.30
23560;DHT22;11958;50.836;4.438;2024-03-23T10:28:59;9.60;66.00
23560;DHT22;11958;50.836;4.438;2024-03-23T10:31:33;9.90;68.50
23560;DHT22;11958;50.836;4.438;2024-03-23T10:34:02;10.50;72.00
23560;DHT22;11958;50.836;4.438;2024-03-23T10:36:29;10.50;66.60
23560;DHT22;11958;50.836;4.438;2024-03-23T10:39:08;10.00;63.00
23560;DHT22;11958;50.836;4.438;2024-03-23T10:41:36;9.90;65.50
23560;DHT22;11958;50.836;4.438;2024-03-23T10:44:08;9.60;66.60
23560;DHT22;11958;50.836;4.438;2024-03-23T10:46:34;9.80;70.30
23560;DHT22;11958;50.836;4.438;2024-03-23T10:49:03;10.00;67.80
23560;DHT22;11958;50.836;4.438;2024-03-23T10:51:29;9.70;63.70
23560;DHT22;11958;50.836;4.438;2024-03-23T10:53:58;9.80;66.20
23560;DHT22;11958;50.836;4.438;2024-03-23T10:56:26;10.10;65.00
23560;DHT22;11958;50.836;4.438;2024-03-23T10:58:54;10.30;65.80
23560;DHT22;11958;50.836;4.438;2024-03-23T11:01:20;10.00;63.90
23560;DHT22;11958;50.836;4.438;2024-03-23T11:03:46;9.70;61.20
23560;DHT22;11958;50.836;4.438;2024-03-23T11:06:38;9.50;61.70
23560;DHT22;11958;50.836;4.438;2024-03-23T11:12:27;10.10;62.30
23560;DHT22;11958;50.836;4.438;2024-03-23T11:15:28;10.00;61.20
23560;DHT22;11958;50.836;4.438;2024-03-23T11:18:09;10.40;62.90
23560;DHT22;11958;50.836;4.438;2024-03-23T11:20:53;10.30;56.90
23560;DHT22;11958;50.836;4.438;2024-03-23T11:23:31;10.50;59.40
23560;DHT22;11958;50.836;4.438;2024-03-23T11:25:56;10.30;56.50
23560;DHT22;11958;50.836;4.438;2024-03-23T11:28:22;10.20;59.40
23560;DHT22;11958;50.836;4.438;2024-03-23T11:30:48;10.10;59.60
23560;DHT22;11958;50.836;4.438;2024-03-23T11:33:14;10.20;60.20
23560;DHT22;11958;50.836;4.438;2024-03-23T11:35:44;10.60;59.40
23560;DHT22;11958;50.836;4.438;2024-03-23T11:38:19;10.20;57.70
23560;DHT22;11958;50.836;4.438;2024-03-23T11:40:53;10.10;58.20
23560;DHT22;11958;50.836;4.438;2024-03-23T11:43:20;10.20;61.20
23560;DHT22;11958;50.836;4.438;2024-03-23T11:45:51;10.50;60.10
23560;DHT22;11958;50.836;4.438;2024-03-23T11:48:24;10.50;59.40
23560;DHT22;11958;50.836;4.438;2024-03-23T11:50:53;10.40;58.40
23560;DHT22;11958;50.836;4.438;2024-03-23T11:53:21;10.40;61.30
23560;DHT22;11958;50.836;4.438;2024-03-23T11:55:59;9.90;58.90
23560;DHT22;11958;50.836;4.438;2024-03-23T11:58:28;9.80;59.90
23560;DHT22;11958;50.836;4.438;2024-03-23T12:00:57;9.90;60.10
23560;DHT22;11958;50.836;4.438;2024-03-23T12:03:24;9.70;60.60
23560;DHT22;11958;50.836;4.438;2024-03-23T12:05:54;9.90;63.10
23560;DHT22;11958;50.836;4.438;2024-03-23T12:11:06;10.10;61.00
23560;DHT22;11958;50.836;4.438;2024-03-23T12:13:32;10.00;61.90
23560;DHT22;11958;50.836;4.438;2024-03-23T12:18:41;10.10;61.20
23560;DHT22;11958;50.836;4.438;2024-03-23T12:21:07;9.90;60.90
23560;DHT22;11958;50.836;4.438;2024-03-23T12:23:34;9.80;60.00
23560;DHT22;11958;50.836;4.438;2024-03-23T12:26:00;10.00;59.60
23560;DHT22;11958;50.836;4.438;2024-03-23T12:28:26;9.70;61.60
23560;DHT22;11958;50.836;4.438;2024-03-23T12:30:52;9.60;64.20
23560;DHT22;11958;50.836;4.438;2024-03-23T12:33:21;9.50;64.30
23560;DHT22;11958;50.836;4.438;2024-03-23T12:35:48;9.40;66.00
23560;DHT22;11958;50.836;4.438;2024-03-23T12:38:13;9.20;62.90
23560;DHT22;11958;50.836;4.438;2024-03-23T12:40:39;8.90;61.50
23560;DHT22;11958;50.836;4.438;2024-03-23T12:43:05;9.90;60.60
23560;DHT22;11958;50.836;4.438;2024-03-23T12:45:30;12.00;57.50
23560;DHT22;11958;50.836;4.438;2024-03-23T12:47:56;13.90;53.80
23560;DHT22;11958;50.836;4.438;2024-03-23T12:50:22;15.10;46.10
23560;DHT22;11958;50.836;4.438;2024-03-23T12:52:47;15.80;46.10
23560;DHT22;11958;50.836;4.438;2024-03-23T12:55:13;15.90;43.70
23560;DHT22;11958;50.836;4.438;2024-03-23T12:57:39;14.90;44.70
23560;DHT22;11958;50.836;4.438;2024-03-23T13:00:06;15.30;45.50
23560;DHT22;11958;50.836;4.438;2024-03-23T13:02:32;14.40;43.90
23560;DHT22;11958;50.836;4.438;2024-03-23T13:05:00;13.50;48.20
23560;DHT22;11958;50.836;4.438;2024-03-23T13:07:26;14.60;46.30
23560;DHT22;11958;50.836;4.438;2024-03-23T13:09:52;15.80;44.00
23560;DHT22;11958;50.836;4.438;2024-03-23T13:12:21;15.90;39.80
23560;DHT22;11958;50.836;4.438;2024-03-23T13:14:47;16.70;39.10
23560;DHT22;11958;50.836;4.438;2024-03-23T13:17:13;15.00;38.30
23560;DHT22;11958;50.836;4.438;2024-03-23T13:19:39;16.10;37.80
23560;DHT22;11958;50.836;4.438;2024-03-23T13:22:05;16.80;36.90
23560;DHT22;11958;50.836;4.438;2024-03-23T13:24:31;16.90;36.30
23560;DHT22;11958;50.836;4.438;2024-03-23T13:26:57;16.70;37.30
23560;DHT22;11958;50.836;4.438;2024-03-23T13:29:24;15.30;38.20
23560;DHT22;11958;50.836;4.438;2024-03-23T13:31:51;13.70;43.30
23560;DHT22;11958;50.836;4.438;2024-03-23T13:34:17;14.20;38.30
23560;DHT22;11958;50.836;4.438;2024-03-23T13:36:44;14.90;40.70
23560;DHT22;11958;50.836;4.438;2024-03-23T13:39:11;15.70;39.40
23560;DHT22;11958;50.836;4.438;2024-03-23T13:41:41;15.90;37.60
23560;DHT22;11958;50.836;4.438;2024-03-23T13:44:08;14.60;40.10
23560;DHT22;11958;50.836;4.438;2024-03-23T13:46:36;15.40;41.30
23560;DHT22;11958;50.836;4.438;2024-03-23T13:49:02;16.60;38.90
23560;DHT22;11958;50.836;4.438;2024-03-23T13:51:28;17.90;37.20
23560;DHT22;11958;50.836;4.438;2024-03-23T13:53:54;18.10;35.90
23560;DHT22;11958;50.836;4.438;2024-03-23T13:56:24;17.30;36.30
23560;DHT22;11958;50.836;4.438;2024-03-23T13:58:50;17.70;37.20
23560;DHT22;11958;50.836;4.438;2024-03-23T14:01:16;17.60;35.20
23560;DHT22;11958;50.836;4.438;2024-03-23T14:03:42;16.70;36.70
23560;DHT22;11958;50.836;4.438;2024-03-23T14:06:10;16.90;38.00
23560;DHT22;11958;50.836;4.438;2024-03-23T14:08:37;17.90;36.50
23560;DHT22;11958;50.836;4.438;2024-03-23T14:11:08;18.00;36.60
23560;DHT22;11958;50.836;4.438;2024-03-23T14:13:34;16.60;37.20
23560;DHT22;11958;50.836;4.438;2024-03-23T14:16:01;15.10;40.20
23560;DHT22;11958;50.836;4.438;2024-03-23T14:18:27;14.90;42.30
23560;DHT22;11958;50.836;4.438;2024-03-23T14:21:00;13.60;44.20
23560;DHT22;11958;50.836;4.438;2024-03-23T14:23:27;13.50;45.00
23560;DHT22;11958;50.836;4.438;2024-03-23T14:25:55;14.40;45.40
23560;DHT22;11958;50.836;4.438;2024-03-23T14:28:24;15.00;41.60
23560;DHT22;11958;50.836;4.438;2024-03-23T14:30:55;15.00;41.80
23560;DHT22;11958;50.836;4.438;2024-03-23T14:33:22;14.50;42.10
23560;DHT22;11958;50.836;4.438;2024-03-23T14:35:54;14.50;42.70
23560;DHT22;11958;50.836;4.438;2024-03-23T14:38:23;14.00;42.00
23560;DHT22;11958;50.836;4.438;2024-03-23T14:40:49;14.00;43.20
23560;DHT22;11958;50.836;4.438;2024-03-23T14:43:16;14.30;43.90
23560;DHT22;11958;50.836;4.438;2024-03-23T14:46:12;13.90;42.80
23560;DHT22;11958;50.836;4.438;2024-03-23T14:48:39;13.80;44.10
23560;DHT22;11958;50.836;4.438;2024-03-23T14:51:05;14.40;43.10
23560;DHT22;11958;50.836;4.438;2024-03-23T14:53:37;14.20;43.80
23560;DHT22;11958;50.836;4.438;2024-03-23T14:56:05;14.80;42.10
23560;DHT22;11958;50.836;4.438;2024-03-23T14:58:30;15.10;41.70
23560;DHT22;11958;50.836;4.438;2024-03-23T15:01:06;14.50;42.60
23560;DHT22;11958;50.836;4.438;2024-03-23T15:03:35;14.80;42.30
23560;DHT22;11958;50.836;4.438;2024-03-23T15:06:01;14.30;41.10
23560;DHT22;11958;50.836;4.438;2024-03-23T15:08:27;14.10;42.80
23560;DHT22;11958;50.836;4.438;2024-03-23T15:10:53;13.80;44.30
23560;DHT22;11958;50.836;4.438;2024-03-23T15:13:19;14.10;45.20
23560;DHT22;11958;50.836;4.438;2024-03-23T15:15:48;13.80;44.40
23560;DHT22;11958;50.836;4.438;2024-03-23T15:18:17;13.50;47.30
23560;DHT22;11958;50.836;4.438;2024-03-23T15:20:55;13.80;44.90
23560;DHT22;11958;50.836;4.438;2024-03-23T15:23:21;13.70;44.80
23560;DHT22;11958;50.836;4.438;2024-03-23T15:25:56;13.80;44.60
23560;DHT22;11958;50.836;4.438;2024-03-23T15:28:25;14.00;46.10
23560;DHT22;11958;50.836;4.438;2024-03-23T15:31:05;13.80;44.00
23560;DHT22;11958;50.836;4.438;2024-03-23T15:33:31;13.20;46.20
23560;DHT22;11958;50.836;4.438;2024-03-23T15:36:01;13.20;48.50
23560;DHT22;11958;50.836;4.438;2024-03-23T15:38:27;13.30;45.50
23560;DHT22;11958;50.836;4.438;2024-03-23T15:40:54;13.00;44.50
23560;DHT22;11958;50.836;4.438;2024-03-23T15:43:20;12.40;48.70
23560;DHT22;11958;50.836;4.438;2024-03-23T15:46:03;12.00;49.80
23560;DHT22;11958;50.836;4.438;2024-03-23T15:48:29;12.10;52.50
23560;DHT22;11958;50.836;4.438;2024-03-23T15:51:04;11.50;49.80
23560;DHT22;11958;50.836;4.438;2024-03-23T15:53:30;11.40;51.80
23560;DHT22;11958;50.836;4.438;2024-03-23T15:56:00;11.10;51.90
23560;DHT22;11958;50.836;4.438;2024-03-23T15:58:27;11.20;52.30
23560;DHT22;11958;50.836;4.438;2024-03-23T16:01:00;11.30;53.20
23560;DHT22;11958;50.836;4.438;2024-03-23T16:03:26;11.20;52.00
23560;DHT22;11958;50.836;4.438;2024-03-23T16:05:56;11.40;53.20
23560;DHT22;11958;50.836;4.438;2024-03-23T16:08:23;11.50;52.80
23560;DHT22;11958;50.836;4.438;2024-03-23T16:10:49;11.50;55.00
23560;DHT22;11958;50.836;4.438;2024-03-23T16:13:16;11.20;52.20
23560;DHT22;11958;50.836;4.438;2024-03-23T16:15:42;11.50;50.00
23560;DHT22;11958;50.836;4.438;2024-03-23T16:18:07;11.60;50.00
23560;DHT22;11958;50.836;4.438;2024-03-23T16:20:33;11.60;50.00
23560;DHT22;11958;50.836;4.438;2024-03-23T16:23:00;11.40;46.30
23560;DHT22;11958;50.836;4.438;2024-03-23T16:25:26;11.50;48.50
23560;DHT22;11958;50.836;4.438;2024-03-23T16:27:52;11.10;47.30
23560;DHT22;11958;50.836;4.438;2024-03-23T16:30:19;11.00;48.80
23560;DHT22;11958;50.836;4.438;2024-03-23T16:32:46;10.80;46.90
23560;DHT22;11958;50.836;4.438;2024-03-23T16:35:13;10.80;47.10
23560;DHT22;11958;50.836;4.438;2024-03-23T16:37:39;10.90;47.80
23560;DHT22;11958;50.836;4.438;2024-03-23T16:40:06;10.90;46.00
23560;DHT22;11958;50.836;4.438;2024-03-23T16:42:32;10.80;48.60
23560;DHT22;11958;50.836;4.438;2024-03-23T16:45:01;11.00;49.70
23560;DHT22;11958;50.836;4.438;2024-03-23T16:47:28;10.80;47.80
23560;DHT22;11958;50.836;4.438;2024-03-23T16:50:00;10.60;49.20
23560;DHT22;11958;50.836;4.438;2024-03-23T16:52:26;10.70;48.70
23560;DHT22;11958;50.836;4.438;2024-03-23T16:54:52;10.60;48.20
23560;DHT22;11958;50.836;4.438;2024-03-23T16:57:17;10.50;46.60
23560;DHT22;11958;50.836;4.438;2024-03-23T16:59:43;10.40;47.70
23560;DHT22;11958;50.836;4.438;2024-03-23T17:02:09;10.50;47.90
23560;DHT22;11958;50.836;4.438;2024-03-23T17:04:34;10.50;47.80
23560;DHT22;11958;50.836;4.438;2024-03-23T17:07:00;10.60;49.70
23560;DHT22;11958;50.836;4.438;2024-03-23T17:09:26;10.50;48.20
23560;DHT22;11958;50.836;4.438;2024-03-23T17:11:56;10.50;47.20
23560;DHT22;11958;50.836;4.438;2024-03-23T17:14:22;10.60;48.20
23560;DHT22;11958;50.836;4.438;2024-03-23T17:16:49;10.60;50.20
23560;DHT22;11958;50.836;4.438;2024-03-23T17:19:16;10.60;49.20
23560;DHT22;11958;50.836;4.438;2024-03-23T17:21:42;10.30;48.90
23560;DHT22;11958;50.836;4.438;2024-03-23T17:24:09;10.40;50.70